Airport Name : Uberaba

Other Name : Uberaba

ICAO : SBUR

IATA : UBA

FAA :

Latitude : -19.765

Longitude : -47.964778

Country : Brazil

Local Date and Time : 9/26/2018 9:27:00 AM

 

TAF (Terminal Aerodrome Forecast)

TAF SBUR 261003Z 2612/2624 04014KT CAVOK TX34/2617Z TN25/2623Z BECMG 2614/2616 02007KT 9999 SCT040 BECMG 2620/2622 04005KT CAVOK RMK PHM

 

METAR (METeorological Aerodrome Report)

SBUR 261100Z 04009KT 9999 VCSH NSC 26/11 Q1017

SBUR 261000Z 06010KT CAVOK 24/12 Q1016

SBUR 260900Z 06009KT 9000 NSC 24/12 Q1015